Time;durP1;ratioP1;P1;durP2;ratioP2;P2;SDS_P1;SDS_P2;PMS_P1;PMS_P2;Temp;Humidity;BMP_temperature;BMP_pressure;BME280_temperature;BME280_humidity;BME280_pressure;Samples;Min_cycle;Max_cycle;Signal;HPM_P1;HPM_P2
2022/10/19 00:01:19;;;;;;;7.13;2.67;;;;;;;10.14;100.00;102124.41;4906645;29;20514;-76
2022/10/19 00:03:48;;;;;;;5.00;1.60;;;;;;;10.12;100.00;102126.09;4909264;29;20099;-76
2022/10/19 00:06:24;;;;;;;3.72;1.70;;;;;;;10.13;100.00;102128.75;4904705;29;20481;-76
2022/10/19 00:08:52;;;;;;;7.30;2.13;;;;;;;10.17;100.00;102127.06;4912016;29;20869;-78
2022/10/19 00:11:19;;;;;;;5.40;2.13;;;;;;;10.21;100.00;102124.53;4904133;29;20048;-76
2022/10/19 00:13:46;;;;;;;3.75;2.13;;;;;;;10.26;100.00;102128.09;4926121;29;20491;-79
2022/10/19 00:16:15;;;;;;;5.53;2.65;;;;;;;10.27;100.00;102132.47;4897019;29;20469;-76
2022/10/19 00:18:43;;;;;;;3.05;1.67;;;;;;;10.25;100.00;102128.94;4925836;29;20081;-78
2022/10/19 00:21:14;;;;;;;5.45;2.03;;;;;;;10.25;100.00;102128.94;4925430;29;20696;-76
2022/10/19 00:23:41;;;;;;;4.63;1.40;;;;;;;10.27;100.00;102131.59;4894954;29;20040;-77
2022/10/19 00:26:09;;;;;;;4.70;1.70;;;;;;;10.30;100.00;102134.28;4906433;29;20045;-77
2022/10/19 00:28:36;;;;;;;7.13;2.00;;;;;;;10.33;100.00;102131.69;4912598;29;20047;-76
2022/10/19 00:31:11;;;;;;;5.40;1.80;;;;;;;10.32;100.00;102134.28;4912612;29;20048;-78
2022/10/19 00:33:38;;;;;;;4.30;1.95;;;;;;;10.30;100.00;102131.66;4901072;29;20040;-78
2022/10/19 00:36:06;;;;;;;7.78;1.77;;;;;;;10.30;100.00;102128.13;4910570;29;20051;-75
2022/10/19 00:38:32;;;;;;;8.15;1.92;;;;;;;10.24;100.00;102131.53;4912904;29;20052;-76
2022/10/19 00:40:59;;;;;;;9.50;2.13;;;;;;;10.04;100.00;102131.22;4908100;29;20055;-78
2022/10/19 00:43:28;;;;;;;8.50;1.88;;;;;;;9.81;100.00;102126.47;4896313;29;20535;-77
2022/10/19 00:45:55;;;;;;;5.70;1.35;;;;;;;9.66;100.00;102134.91;4909262;29;20045;-80
2022/10/19 00:48:27;;;;;;;3.65;1.70;;;;;;;9.55;100.00;102126.84;4920680;29;20063;-79
2022/10/19 00:50:56;;;;;;;7.95;1.75;;;;;;;9.49;100.00;102125.84;4920096;29;20036;-76
2022/10/19 00:53:27;;;;;;;3.65;2.80;;;;;;;9.41;100.00;102124.00;4905255;29;20052;-77
2022/10/19 00:55:54;;;;;;;3.35;1.95;;;;;;;9.38;100.00;102125.66;4908284;29;20048;-78
2022/10/19 00:58:21;;;;;;;5.63;1.70;;;;;;;9.38;100.00;102126.53;4908708;29;20054;-75
2022/10/19 01:00:48;;;;;;;4.63;1.42;;;;;;;9.40;100.00;102122.22;4909938;29;20416;-78
2022/10/19 01:03:14;;;;;;;7.78;1.83;;;;;;;9.42;100.00;102122.25;4926395;29;20104;-75
2022/10/19 01:05:41;;;;;;;6.95;2.45;;;;;;;9.38;100.00;102133.50;4903751;29;20064;-77
2022/10/19 01:08:09;;;;;;;10.23;1.48;;;;;;;9.37;100.00;102127.41;4901069;29;20056;-77
2022/10/19 01:10:48;;;;;;;4.13;1.30;;;;;;;9.38;100.00;102128.28;4909085;29;20045;-74
2022/10/19 01:13:25;;;;;;;4.30;1.73;;;;;;;9.37;100.00;102131.72;4909415;29;20052;-76
2022/10/19 01:16:03;;;;;;;5.07;1.58;;;;;;;9.28;100.00;102129.81;4891531;29;20148;-74
2022/10/19 01:19:03;;;;;;;4.07;1.40;;;;;;;9.16;100.00;102127.81;4912673;29;20032;-78
2022/10/19 01:21:39;;;;;;;2.15;1.00;;;;;;;9.08;100.00;102121.56;4912860;29;20078;-75
2022/10/19 01:25:02;;;;;;;6.63;1.80;;;;;;;9.03;100.00;102112.75;4885786;29;20047;-75
2022/10/19 01:27:43;;;;;;;4.80;1.25;;;;;;;8.94;100.00;102116.94;4903536;29;20041;-75
2022/10/19 01:30:16;;;;;;;6.90;2.88;;;;;;;8.83;100.00;102120.19;4911159;29;20063;-74
2022/10/19 01:33:05;;;;;;;5.97;2.20;;;;;;;8.74;100.00;102120.84;4897823;29;20056;-78
2022/10/19 01:36:01;;;;;;;4.32;1.60;;;;;;;8.65;100.00;102123.25;4906784;29;20143;-78
2022/10/19 01:38:52;;;;;;;5.15;1.73;;;;;;;8.51;100.00;102123.78;4911875;29;20032;-74
2022/10/19 01:41:41;;;;;;;4.03;1.70;;;;;;;8.44;100.00;102119.25;4893143;29;20484;-78
2022/10/19 01:44:18;;;;;;;2.35;1.60;;;;;;;8.39;100.00;102123.50;4903625;29;20039;-80
2022/10/19 01:46:53;;;;;;;5.80;2.22;;;;;;;8.34;100.00;102119.88;4876404;29;20048;-76
2022/10/19 01:49:41;;;;;;;4.55;1.73;;;;;;;8.25;100.00;102123.16;4909713;29;20051;-78
2022/10/19 01:52:12;;;;;;;11.38;2.05;;;;;;;8.22;100.00;102117.88;4888943;29;20080;-81
2022/10/19 01:54:48;;;;;;;3.25;1.58;;;;;;;8.19;100.00;102130.84;4909902;29;20056;-80
2022/10/19 01:57:22;;;;;;;11.07;2.08;;;;;;;8.20;100.00;102125.66;4882753;29;20064;-74
2022/10/19 01:59:49;;;;;;;;;;;;;;;8.36;100.00;102128.66;4896641;29;20759;-76
2022/10/19 02:02:18;;;;;;;6.43;1.60;;;;;;;8.55;100.00;102123.03;4891105;29;19933;-74
2022/10/19 02:04:46;;;;;;;3.05;1.65;;;;;;;8.80;100.00;102125.31;4895226;29;20075;-77
2022/10/19 02:07:16;;;;;;;3.47;2.08;;;;;;;9.00;100.00;102130.97;4892245;29;20059;-75
2022/10/19 02:09:43;;;;;;;5.85;2.00;;;;;;;9.19;100.00;102134.84;4911824;29;20040;-75
2022/10/19 02:12:11;;;;;;;4.47;2.00;;;;;;;9.30;100.00;102137.69;4898125;29;20484;-77
2022/10/19 02:14:45;;;;;;;6.28;1.92;;;;;;;9.40;100.00;102127.44;4913371;29;20055;-78
2022/10/19 02:17:39;;;;;;;8.48;2.00;;;;;;;9.50;100.00;102136.34;4906632;29;20040;-78
2022/10/19 02:20:07;;;;;;;10.38;3.08;;;;;;;9.58;100.00;102132.16;4895168;29;20052;-77
2022/10/19 02:22:33;;;;;;;4.20;1.80;;;;;;;9.62;100.00;102126.97;4910063;29;20653;-76
2022/10/19 02:25:00;;;;;;;4.75;1.75;;;;;;;9.65;100.00;102130.53;4909505;29;20055;-77
2022/10/19 02:27:27;;;;;;;4.72;2.10;;;;;;;9.68;100.00;102125.34;4930539;29;20047;-78
2022/10/19 02:29:54;;;;;;;5.47;1.85;;;;;;;9.68;100.00;102127.97;4913420;29;20403;-76
2022/10/19 02:32:20;;;;;;;17.58;3.15;;;;;;;9.71;100.00;102124.53;4896591;29;20055;-76
2022/10/19 02:34:47;;;;;;;8.43;2.78;;;;;;;9.73;100.00;102125.44;4930742;29;20048;-75
2022/10/19 02:37:13;;;;;;;5.93;2.83;;;;;;;9.74;100.00;102125.47;4912218;29;20059;-75
2022/10/19 02:39:40;;;;;;;5.28;2.17;;;;;;;9.79;100.00;102127.28;4926415;29;20076;-75
2022/10/19 02:42:12;;;;;;;4.88;1.60;;;;;;;9.85;100.00;102124.78;4905537;29;20715;-75
2022/10/19 02:44:58;;;;;;;3.17;1.50;;;;;;;9.90;100.00;102124.00;4927069;29;20048;-77
2022/10/19 02:47:31;;;;;;;2.47;1.77;;;;;;;9.93;100.00;102133.63;4929467;29;20108;-78
2022/10/19 02:49:57;;;;;;;4.82;1.75;;;;;;;9.97;100.00;102131.97;4909626;29;20494;-74
2022/10/19 02:52:24;;;;;;;6.93;2.60;;;;;;;10.01;100.00;102131.16;4902475;29;20048;-78
2022/10/19 02:54:51;;;;;;;3.10;1.85;;;;;;;10.03;100.00;102132.94;4901267;29;20040;-75
2022/10/19 02:57:21;;;;;;;4.68;1.73;;;;;;;10.05;100.00;102128.63;4910720;29;20140;-76
2022/10/19 02:59:48;;;;;;;4.68;1.65;;;;;;;10.06;100.00;102130.41;4912154;29;20048;-76
2022/10/19 03:02:16;;;;;;;3.47;2.03;;;;;;;10.08;100.00;102127.81;4908058;29;20420;-76
2022/10/19 03:04:44;;;;;;;2.17;1.83;;;;;;;10.09;100.00;102132.19;4912450;29;20055;-75
2022/10/19 03:07:14;;;;;;;2.72;1.90;;;;;;;10.10;100.00;102134.81;4906529;29;20057;-76
2022/10/19 03:09:42;;;;;;;3.67;1.50;;;;;;;10.12;100.00;102133.94;4915144;29;20092;-75
2022/10/19 03:12:09;;;;;;;4.05;1.50;;;;;;;10.15;100.00;102134.00;4907086;29;20136;-75
2022/10/19 03:14:35;;;;;;;3.35;2.63;;;;;;;10.15;100.00;102132.25;4909562;29;20123;-75
2022/10/19 03:17:03;;;;;;;3.67;2.40;;;;;;;10.17;100.00;102133.19;4908549;29;20463;-75
2022/10/19 03:19:29;;;;;;;6.85;2.75;;;;;;;10.18;100.00;102140.19;4900825;29;20036;-80
2022/10/19 03:21:56;;;;;;;4.28;2.53;;;;;;;10.20;100.00;102141.06;4901132;29;20068;-75
2022/10/19 03:24:23;;;;;;;4.20;2.38;;;;;;;10.21;100.00;102136.75;4874114;29;20044;-76
2022/10/19 03:26:49;;;;;;;11.02;3.72;;;;;;;10.21;100.00;102140.22;4876115;29;20424;-75
2022/10/19 03:29:16;;;;;;;5.90;3.53;;;;;;;10.19;100.00;102134.06;4888985;29;20476;-77
2022/10/19 03:31:42;;;;;;;5.95;3.20;;;;;;;10.18;100.00;102139.28;4859420;29;20483;-75
2022/10/19 03:34:08;;;;;;;5.68;2.60;;;;;;;10.19;100.00;102141.06;4873455;29;20051;-75
2022/10/19 03:36:38;;;;;;;6.60;2.35;;;;;;;10.18;100.00;102134.94;4878942;29;20050;-75
2022/10/19 03:39:12;;;;;;;11.15;2.83;;;;;;;10.17;100.00;102148.88;4859421;29;20045;-77
2022/10/19 03:41:39;;;;;;;6.80;2.20;;;;;;;10.16;100.00;102144.50;4879871;29;20080;-76
2022/10/19 03:44:08;;;;;;;5.90;1.70;;;;;;;10.18;100.00;102145.41;4877515;29;20499;-76
2022/10/19 03:46:35;;;;;;;5.00;1.60;;;;;;;10.18;100.00;102134.94;4881926;29;20055;-74
2022/10/19 03:49:02;;;;;;;5.22;2.13;;;;;;;10.17;100.00;102140.13;4881735;29;20049;-76
2022/10/19 03:51:31;;;;;;;4.70;2.20;;;;;;;10.17;100.00;102138.41;4879359;29;20119;-77
2022/10/19 03:54:04;;;;;;;8.20;2.15;;;;;;;10.18;100.00;102148.03;4871934;29;20051;-76
2022/10/19 03:56:33;;;;;;;7.82;2.85;;;;;;;10.19;100.00;102141.06;4892108;29;20043;-75
2022/10/19 03:59:02;;;;;;;3.65;2.58;;;;;;;10.20;100.00;102153.28;4891882;29;20057;-76
2022/10/19 04:01:33;;;;;;;8.80;2.75;;;;;;;10.21;100.00;102149.81;4894011;29;20468;-77
2022/10/19 04:04:04;;;;;;;6.07;2.20;;;;;;;10.23;100.00;102148.09;4876948;29;20056;-76
2022/10/19 04:06:38;;;;;;;5.45;3.28;;;;;;;10.23;100.00;102145.47;4878896;29;20048;-75
2022/10/19 04:09:07;;;;;;;2.95;2.65;;;;;;;10.23;100.00;102148.09;4889652;29;20044;-75
2022/10/19 04:11:34;;;;;;;4.40;3.13;;;;;;;10.22;100.00;102151.56;4878825;29;20841;-76
2022/10/19 04:14:02;;;;;;;6.65;2.97;;;;;;;10.21;100.00;102153.31;4893568;29;20127;-74
2022/10/19 04:16:30;;;;;;;7.95;4.03;;;;;;;10.20;100.00;102153.28;4873091;29;20048;-76
2022/10/19 04:18:57;;;;;;;4.72;3.47;;;;;;;10.18;100.00;102155.00;4878922;29;20040;-76
2022/10/19 04:21:25;;;;;;;6.88;4.45;;;;;;;10.17;100.00;102146.28;4879217;29;20127;-78
2022/10/19 04:23:57;;;;;;;8.07;4.88;;;;;;;10.17;100.00;102146.28;4890971;29;20068;-75
2022/10/19 04:26:23;;;;;;;8.68;4.60;;;;;;;10.15;100.00;102144.47;4867712;29;20040;-77
2022/10/19 04:28:50;;;;;;;7.45;4.72;;;;;;;10.14;100.00;102154.03;4876540;29;20049;-79
2022/10/19 04:31:16;;;;;;;7.15;3.97;;;;;;;10.16;100.00;102154.09;4889613;29;20049;-79
2022/10/19 04:33:43;;;;;;;9.82;4.53;;;;;;;10.16;100.00;102149.72;4889548;29;20160;-75
2022/10/19 04:36:12;;;;;;;10.90;4.63;;;;;;;10.14;100.00;102151.44;4868435;29;20060;-75
2022/10/19 04:38:39;;;;;;;8.63;4.03;;;;;;;10.15;100.00;102149.72;4892634;29;20097;-75
2022/10/19 04:41:15;;;;;;;6.00;3.83;;;;;;;10.16;100.00;102148.88;4886132;29;20048;-76
2022/10/19 04:43:44;;;;;;;6.53;3.25;;;;;;;10.13;100.00;102152.31;4869911;29;20053;-78
2022/10/19 04:46:19;;;;;;;5.15;3.20;;;;;;;10.14;100.00;102161.91;4873174;29;20162;-75
2022/10/19 04:48:48;;;;;;;7.88;2.85;;;;;;;10.17;100.00;102159.34;4888668;29;20648;-77
2022/10/19 04:51:15;;;;;;;7.10;2.42;;;;;;;10.16;100.00;102162.81;4890689;29;20041;-76
2022/10/19 04:53:43;;;;;;;8.48;3.30;;;;;;;10.17;100.00;102156.75;4878928;29;20049;-77
2022/10/19 04:56:22;;;;;;;4.80;2.97;;;;;;;10.18;100.00;102158.50;4887283;29;20044;-78
2022/10/19 04:58:49;;;;;;;3.95;2.47;;;;;;;10.20;100.00;102162.00;4887199;29;20049;-74
2022/10/19 05:01:21;;;;;;;6.35;2.38;;;;;;;10.19;100.00;102167.22;4892369;29;20047;-75
2022/10/19 05:03:48;;;;;;;2.10;1.88;;;;;;;10.20;100.00;102169.00;4893006;29;20049;-75
2022/10/19 05:06:15;;;;;;;6.22;2.35;;;;;;;10.19;100.00;102170.72;4878560;29;20407;-75
2022/10/19 05:08:42;;;;;;;5.82;1.48;;;;;;;10.21;100.00;102165.53;4878298;29;20041;-77
2022/10/19 05:11:14;;;;;;;6.38;2.10;;;;;;;10.21;100.00;102165.53;4881170;29;20045;-77
2022/10/19 05:13:42;;;;;;;8.35;2.08;;;;;;;10.19;100.00;102160.25;4888936;29;20036;-75
2022/10/19 05:16:14;;;;;;;5.47;2.45;;;;;;;10.21;100.00;102160.28;4890865;29;20056;-77
2022/10/19 05:18:41;;;;;;;4.30;1.90;;;;;;;10.18;100.00;102158.50;4869380;29;20048;-77
2022/10/19 05:21:11;;;;;;;7.00;2.65;;;;;;;10.21;100.00;102157.69;4896985;29;20052;-76
2022/10/19 05:23:38;;;;;;;6.32;1.60;;;;;;;10.21;100.00;102163.78;4895385;29;20041;-77
2022/10/19 05:26:16;;;;;;;6.40;2.85;;;;;;;10.20;100.00;102169.00;4909805;29;20040;-76
2022/10/19 05:28:48;;;;;;;12.05;2.03;;;;;;;10.20;100.00;102158.53;4902963;29;20416;-76
2022/10/19 05:31:18;;;;;;;4.25;2.00;;;;;;;10.23;100.00;102163.81;4884102;29;20075;-77
2022/10/19 05:33:45;;;;;;;3.53;1.48;;;;;;;10.24;100.00;102162.94;4888650;29;20131;-79
2022/10/19 05:36:24;;;;;;;5.22;1.80;;;;;;;10.25;100.00;102152.50;4911867;29;20059;-76
2022/10/19 05:38:51;;;;;;;5.47;1.83;;;;;;;10.27;100.00;102160.38;4876316;29;20056;-75
2022/10/19 05:41:19;;;;;;;5.55;2.70;;;;;;;10.27;100.00;102156.03;4895970;29;20040;-79
2022/10/19 05:43:47;;;;;;;3.90;2.65;;;;;;;10.27;100.00;102150.81;4890478;29;20072;-74
2022/10/19 05:46:17;;;;;;;3.15;1.75;;;;;;;10.31;100.00;102161.31;4910925;29;20036;-78
2022/10/19 05:48:45;;;;;;;5.05;1.65;;;;;;;10.33;100.00;102155.25;4912604;29;20099;-76
2022/10/19 05:51:19;;;;;;;5.95;2.38;;;;;;;10.35;100.00;102156.19;4915092;29;20423;-77
2022/10/19 05:53:46;;;;;;;7.47;1.52;;;;;;;10.38;100.00;102168.47;4894925;29;20409;-78
2022/10/19 05:56:19;;;;;;;4.85;2.15;;;;;;;10.39;100.00;102160.63;4910328;29;20680;-76
2022/10/19 05:58:47;;;;;;;6.57;2.10;;;;;;;10.40;100.00;102158.88;4894902;29;20052;-77
2022/10/19 06:01:14;;;;;;;3.95;2.05;;;;;;;10.39;100.00;102155.38;4899964;29;20051;-77
2022/10/19 06:03:41;;;;;;;5.68;2.25;;;;;;;10.38;100.00;102158.84;4911872;29;20051;-76
2022/10/19 06:06:09;;;;;;;3.85;2.13;;;;;;;10.38;100.00;102158.84;4921374;29;20044;-77
2022/10/19 06:08:36;;;;;;;3.80;1.48;;;;;;;10.40;100.00;102159.78;4889621;29;20044;-76
2022/10/19 06:11:25;;;;;;;5.88;1.60;;;;;;;10.42;100.00;102159.78;4897847;29;20056;-78
2022/10/19 06:13:56;;;;;;;4.88;2.20;;;;;;;10.45;100.00;102153.72;4891000;29;20045;-80
2022/10/19 06:16:25;;;;;;;2.35;2.08;;;;;;;10.48;100.00;102159.00;4904958;29;20544;-78
2022/10/19 06:18:53;;;;;;;2.65;1.92;;;;;;;10.52;100.00;102173.88;4913451;29;20068;-75
2022/10/19 06:21:23;;;;;;;5.72;1.88;;;;;;;10.54;100.00;102164.34;4902745;29;20080;-75
2022/10/19 06:24:10;;;;;;;4.15;1.65;;;;;;;10.55;100.00;102169.59;4893407;29;20048;-77
2022/10/19 06:26:37;;;;;;;5.55;2.10;;;;;;;10.57;100.00;102167.00;4903047;29;20485;-79
2022/10/19 06:29:04;;;;;;;8.07;1.73;;;;;;;10.58;100.00;102172.25;4913392;29;20501;-77
2022/10/19 06:31:35;;;;;;;4.57;1.45;;;;;;;10.62;100.00;102174.94;4893963;29;20095;-76
2022/10/19 06:34:01;;;;;;;6.35;1.77;;;;;;;10.64;100.00;102173.19;4914337;29;20090;-76
2022/10/19 06:36:30;;;;;;;5.03;1.05;;;;;;;10.64;100.00;102175.81;4914973;29;20044;-75
2022/10/19 06:38:58;;;;;;;3.58;0.85;;;;;;;10.68;100.00;102177.66;4908942;29;20086;-76
2022/10/19 06:41:25;;;;;;;3.35;1.02;;;;;;;10.72;100.00;102169.84;4908112;29;20091;-76
2022/10/19 06:43:53;;;;;;;4.30;1.00;;;;;;;10.76;100.00;102184.75;4915677;29;20131;-75
2022/10/19 06:46:22;;;;;;;3.25;1.42;;;;;;;10.81;99.84;102195.31;4887101;29;20104;-79
2022/10/19 06:48:57;;;;;;;5.10;1.33;;;;;;;10.82;99.73;102194.44;4915699;29;20047;-78
2022/10/19 06:51:25;;;;;;;3.92;1.25;;;;;;;10.82;99.48;102199.69;4915119;29;20047;-77
2022/10/19 06:53:53;;;;;;;6.47;1.50;;;;;;;10.83;99.19;102198.81;4929810;29;20048;-78
2022/10/19 06:56:23;;;;;;;3.13;1.08;;;;;;;10.86;99.03;102200.59;4924142;29;20062;-76
2022/10/19 06:58:49;;;;;;;3.38;1.02;;;;;;;10.90;98.24;102199.81;4914941;29;20067;-82
2022/10/19 07:01:16;;;;;;;4.20;0.93;;;;;;;10.95;97.80;102198.13;4925464;29;20074;-78
2022/10/19 07:03:43;;;;;;;7.22;1.65;;;;;;;11.02;97.07;102196.47;4927386;29;20047;-81
2022/10/19 07:06:11;;;;;;;10.70;1.58;;;;;;;11.09;96.90;102193.97;4923187;29;20048;-77
2022/10/19 07:08:40;;;;;;;5.90;1.35;;;;;;;11.17;95.96;102196.69;4923950;29;20051;-75
2022/10/19 07:11:10;;;;;;;2.42;0.98;;;;;;;11.23;94.65;102198.50;4913262;29;20686;-75
2022/10/19 07:13:37;;;;;;;8.10;1.58;;;;;;;11.31;94.43;102190.75;4917022;29;20051;-77
2022/10/19 07:16:09;;;;;;;4.70;1.45;;;;;;;11.38;93.46;102198.69;4930837;29;20135;-81
2022/10/19 07:18:38;;;;;;;8.67;1.20;;;;;;;11.45;89.87;102194.41;4906297;29;20055;-74
2022/10/19 07:21:10;;;;;;;9.55;1.45;;;;;;;11.46;88.74;102201.41;4912257;29;20052;-82
2022/10/19 07:23:39;;;;;;;5.05;1.02;;;;;;;11.49;86.74;102205.81;4908355;29;20045;-76
2022/10/19 07:26:10;;;;;;;4.82;1.10;;;;;;;11.52;87.50;102206.72;4913980;29;20488;-79
2022/10/19 07:28:39;;;;;;;3.40;1.00;;;;;;;11.55;85.93;102206.78;4909265;29;20139;-77
2022/10/19 07:31:08;;;;;;;4.05;0.90;;;;;;;11.59;84.73;102198.06;4909961;29;20722;-77
2022/10/19 07:33:35;;;;;;;6.75;1.20;;;;;;;11.63;84.37;102213.84;4925911;29;20043;-76
2022/10/19 07:36:05;;;;;;;4.30;1.15;;;;;;;11.65;83.31;102207.75;4926633;29;20048;-79
2022/10/19 07:38:33;;;;;;;4.25;0.90;;;;;;;11.66;80.52;102217.38;4922131;29;20066;-78
2022/10/19 07:41:12;;;;;;;5.90;1.60;;;;;;;11.73;82.83;102216.59;4914562;29;20056;-77
2022/10/19 07:43:39;;;;;;;3.60;0.80;;;;;;;11.77;76.01;102216.63;4912629;29;20040;-77
2022/10/19 07:46:18;;;;;;;4.63;1.20;;;;;;;11.74;74.99;102220.09;4912667;29;20608;-76
2022/10/19 07:48:45;;;;;;;3.55;0.63;;;;;;;11.77;75.55;102228.00;4911279;29;20056;-75
2022/10/19 07:51:14;;;;;;;8.48;1.77;;;;;;;11.77;75.20;102228.00;4904172;29;20142;-76
2022/10/19 07:53:42;;;;;;;8.40;0.88;;;;;;;11.78;75.59;102228.88;4908814;29;20044;-81
2022/10/19 07:56:18;;;;;;;2.15;0.60;;;;;;;11.77;72.64;102229.75;4925650;29;20074;-76
2022/10/19 07:58:45;;;;;;;3.20;1.40;;;;;;;11.78;72.31;102228.88;4910579;29;20051;-76
2022/10/19 08:01:15;;;;;;;2.80;0.82;;;;;;;11.77;69.74;102235.88;4892356;29;20060;-76
2022/10/19 08:03:42;;;;;;;8.82;1.23;;;;;;;11.73;70.50;102236.69;4896733;29;20044;-77
2022/10/19 08:06:11;;;;;;;3.45;0.55;;;;;;;11.77;71.60;102241.09;4908840;29;20040;-76
2022/10/19 08:08:39;;;;;;;11.95;2.60;;;;;;;11.78;71.11;102242.00;4912424;29;20051;-76
2022/10/19 08:11:15;;;;;;;10.13;1.73;;;;;;;11.71;70.71;102244.56;4905424;29;20055;-77
2022/10/19 08:13:42;;;;;;;4.07;1.75;;;;;;;11.67;71.22;102247.13;4912994;29;20491;-78
2022/10/19 08:16:27;;;;;;;6.10;1.65;;;;;;;11.62;70.11;102243.56;4906847;29;20075;-76
2022/10/19 08:18:59;;;;;;;4.78;1.15;;;;;;;11.55;70.40;102247.84;4909357;29;20675;-76
2022/10/19 08:21:27;;;;;;;3.40;0.80;;;;;;;11.55;71.13;102243.50;4913387;29;20049;-79
2022/10/19 08:23:54;;;;;;;4.45;0.93;;;;;;;11.56;70.07;102250.50;4887857;29;20123;-76
2022/10/19 08:26:21;;;;;;;4.03;0.75;;;;;;;11.53;69.87;102246.97;4891586;29;20052;-78
2022/10/19 08:28:48;;;;;;;5.43;0.88;;;;;;;11.53;70.58;102245.19;4890878;29;20487;-76
2022/10/19 08:31:18;;;;;;;3.25;0.77;;;;;;;11.62;70.61;102239.19;4907325;29;20147;-77
2022/10/19 08:33:46;;;;;;;8.55;0.93;;;;;;;11.72;69.23;102238.44;4886897;29;20040;-77
2022/10/19 08:36:13;;;;;;;2.22;0.40;;;;;;;11.78;69.01;102234.13;4895786;29;20063;-76
2022/10/19 08:38:43;;;;;;;2.22;0.55;;;;;;;11.88;68.57;102225.50;4905360;29;20112;-77
2022/10/19 08:41:57;;;;;;;7.35;0.57;;;;;;;11.95;66.50;102232.59;4909760;29;20044;-78
2022/10/19 08:44:35;;;;;;;4.63;0.52;;;;;;;12.03;67.53;102230.97;4910347;29;20546;-76
2022/10/19 08:47:18;;;;;;;2.25;0.55;;;;;;;12.08;66.92;102233.63;4898085;29;20056;-76
2022/10/19 08:49:45;;;;;;;4.75;1.10;;;;;;;12.14;66.94;102230.19;4912803;29;20064;-75
2022/10/19 08:52:16;;;;;;;8.25;0.98;;;;;;;12.17;66.04;102231.06;4898065;29;20063;-76
2022/10/19 08:54:58;;;;;;;5.22;1.27;;;;;;;12.16;65.79;102225.81;4906604;29;20044;-74
2022/10/19 08:57:47;;;;;;;3.70;0.47;;;;;;;12.24;66.12;102224.13;4912497;29;20079;-76
2022/10/19 09:00:49;;;;;;;5.00;0.70;;;;;;;12.40;64.71;102225.19;4891288;29;20562;-78
2022/10/19 09:03:25;;;;;;;2.22;0.80;;;;;;;12.55;65.97;102224.41;4889269;29;20059;-77
2022/10/19 09:06:05;;;;;;;2.90;0.50;;;;;;;12.68;64.25;102226.25;4909746;29;20057;-77
2022/10/19 09:08:36;;;;;;;3.17;0.57;;;;;;;12.64;62.79;102220.97;4898886;29;20044;-75
2022/10/19 09:11:03;;;;;;;4.47;0.65;;;;;;;12.61;63.40;102229.72;4913391;29;20048;-76
2022/10/19 09:13:42;;;;;;;3.45;0.60;;;;;;;12.63;64.50;102230.59;4906096;29;20056;-75
2022/10/19 09:16:14;;;;;;;2.75;0.55;;;;;;;12.82;64.27;102228.13;4908641;29;20415;-75
2022/10/19 09:18:42;;;;;;;3.83;0.68;;;;;;;13.04;63.40;102229.16;4903002;29;20043;-81
2022/10/19 09:21:26;;;;;;;2.20;0.40;;;;;;;13.18;61.48;102224.84;4909546;29;20058;-77
2022/10/19 09:24:34;;;;;;;5.30;0.40;;;;;;;13.20;62.17;102227.47;4894143;29;20067;-75
2022/10/19 09:27:02;;;;;;;1.27;0.30;;;;;;;13.16;62.46;102223.94;4913169;29;20055;-74
2022/10/19 09:29:42;;;;;;;2.58;0.68;;;;;;;13.30;61.79;102223.16;4909433;29;20036;-75
2022/10/19 09:32:19;;;;;;;5.50;0.50;;;;;;;13.37;60.42;102220.56;4901142;29;20040;-74
2022/10/19 09:34:53;;;;;;;5.25;0.88;;;;;;;13.35;61.69;102224.03;4896584;29;20108;-75
2022/10/19 09:37:21;;;;;;;4.50;0.60;;;;;;;13.47;61.32;102220.63;4891972;29;20052;-79
2022/10/19 09:39:49;;;;;;;1.55;0.30;;;;;;;13.63;60.29;102229.47;4893676;29;20048;-77
2022/10/19 09:42:28;;;;;;;1.33;0.22;;;;;;;13.71;59.31;102218.09;4898083;29;20052;-76
2022/10/19 09:44:55;;;;;;;2.17;0.68;;;;;;;13.70;59.50;102226.84;4880846;29;20086;-76
2022/10/19 09:47:40;;;;;;;8.73;1.67;;;;;;;13.77;59.15;102222.50;4900003;29;20187;-77
2022/10/19 09:50:27;;;;;;;3.38;0.68;;;;;;;13.82;59.12;102227.75;4890385;29;20041;-77
2022/10/19 09:53:05;;;;;;;3.95;0.82;;;;;;;13.81;58.86;102226.00;4894141;29;20048;-78
2022/10/19 09:55:42;;;;;;;3.30;0.50;;;;;;;13.66;59.63;102235.63;4895324;29;20079;-76
2022/10/19 09:58:14;;;;;;;2.63;0.55;;;;;;;13.66;59.91;102232.09;4902772;29;20044;-75
2022/10/19 10:00:45;;;;;;;7.00;0.80;;;;;;;13.60;60.29;102232.06;4901002;29;20044;-76
2022/10/19 10:03:35;;;;;;;1.17;0.57;;;;;;;13.62;60.12;102228.56;4890650;29;20062;-76
2022/10/19 10:06:14;;;;;;;5.05;0.80;;;;;;;13.54;60.13;102236.41;4907978;29;20103;-79
2022/10/19 10:08:56;;;;;;;1.50;0.90;;;;;;;13.31;60.82;102228.41;4896304;29;20044;-76
2022/10/19 10:11:40;;;;;;;2.55;0.55;;;;;;;13.27;61.32;102231.91;4898200;29;20063;-76
2022/10/19 10:14:21;;;;;;;2.45;0.60;;;;;;;13.18;61.35;102234.47;4917884;29;20051;-78
2022/10/19 10:16:48;;;;;;;0.90;0.43;;;;;;;13.05;61.78;102236.16;4917345;29;20050;-74
2022/10/19 10:19:17;;;;;;;3.20;0.63;;;;;;;13.07;62.58;102242.28;4895395;29;20052;-77
2022/10/19 10:21:53;;;;;;;1.85;0.68;;;;;;;13.14;62.34;102233.59;4921517;29;20108;-75
2022/10/19 10:24:29;;;;;;;1.10;0.50;;;;;;;13.17;62.36;102238.00;4881724;29;20055;-78
2022/10/19 10:27:02;;;;;;;2.28;0.70;;;;;;;13.35;62.11;102237.19;4907387;29;20527;-75
2022/10/19 10:29:33;;;;;;;1.75;1.00;;;;;;;13.51;61.85;102225.91;4884222;29;20392;-76
2022/10/19 10:32:15;;;;;;;2.55;0.55;;;;;;;13.63;60.96;102230.31;4912894;29;20048;-77
2022/10/19 10:34:56;;;;;;;1.08;0.40;;;;;;;13.79;60.46;102236.50;4888463;29;20075;-78
2022/10/19 10:37:36;;;;;;;2.30;1.08;;;;;;;13.89;60.02;102238.28;4906135;29;20491;-79
2022/10/19 10:40:05;;;;;;;1.33;0.65;;;;;;;14.06;59.90;102232.19;4916342;29;20047;-77
2022/10/19 10:42:42;;;;;;;1.25;0.75;;;;;;;14.27;59.34;102241.88;4889551;29;20052;-77
2022/10/19 10:45:31;;;;;;;0.90;0.60;;;;;;;14.36;57.67;102236.63;4901227;29;20048;-76
2022/10/19 10:48:12;;;;;;;8.93;0.98;;;;;;;14.39;58.72;102233.09;4911092;29;20779;-76
2022/10/19 10:50:39;;;;;;;1.17;0.45;;;;;;;14.34;58.27;102234.88;4898682;29;20510;-76
2022/10/19 10:53:34;;;;;;;7.35;1.15;;;;;;;14.21;59.10;102232.22;4907999;29;20054;-77
2022/10/19 10:56:01;;;;;;;4.18;1.13;;;;;;;14.17;58.97;102226.94;4898121;29;20076;-74
2022/10/19 10:58:43;;;;;;;1.52;0.60;;;;;;;14.21;58.67;102224.34;4898280;29;20955;-75
2022/10/19 11:01:20;;;;;;;2.10;0.73;;;;;;;14.33;58.14;102218.19;4914003;29;20055;-75
2022/10/19 11:03:57;;;;;;;5.85;0.95;;;;;;;14.23;58.56;102229.59;4899709;29;20433;-78
2022/10/19 11:06:25;;;;;;;7.75;1.85;;;;;;;14.36;58.36;102217.31;4895458;29;20051;-75
2022/10/19 11:09:03;;;;;;;0.77;0.43;;;;;;;14.29;58.08;102213.81;4907308;29;20057;-78
2022/10/19 11:11:38;;;;;;;4.88;1.02;;;;;;;14.30;57.70;102214.66;4896164;29;20103;-76
2022/10/19 11:14:38;;;;;;;20.77;2.42;;;;;;;14.46;56.91;102211.16;4901513;29;20056;-75
2022/10/19 11:17:13;;;;;;;1.95;0.38;;;;;;;14.54;57.11;102208.53;4912791;29;20052;-77
2022/10/19 11:19:44;;;;;;;7.28;1.30;;;;;;;14.75;56.46;102205.03;4896972;29;20408;-82
2022/10/19 11:22:30;;;;;;;3.05;0.65;;;;;;;14.92;55.66;102197.09;4872983;29;20053;-76
2022/10/19 11:25:03;;;;;;;10.63;2.38;;;;;;;14.93;55.21;102183.03;4874645;29;20045;-77
2022/10/19 11:27:37;;;;;;;2.78;1.02;;;;;;;14.78;56.03;102181.28;4887405;29;20053;-76
2022/10/19 11:30:19;;;;;;;5.88;0.95;;;;;;;14.89;54.86;102173.38;4895966;29;20672;-78
2022/10/19 11:33:08;;;;;;;4.28;0.57;;;;;;;14.99;54.43;102169.84;4877544;29;20052;-76
2022/10/19 11:35:59;;;;;;;2.05;1.23;;;;;;;15.14;54.56;102170.66;4879816;29;20048;-76
2022/10/19 11:38:31;;;;;;;2.00;0.63;;;;;;;15.35;54.61;102156.50;4867980;29;20504;-75
2022/10/19 11:41:17;;;;;;;3.05;0.60;;;;;;;15.39;52.97;102161.72;4880905;29;20055;-75
2022/10/19 11:44:05;;;;;;;2.45;0.57;;;;;;;15.20;53.92;102158.31;4872936;29;20461;-77
2022/10/19 11:46:48;;;;;;;9.82;1.38;;;;;;;15.05;54.27;102168.94;4890673;29;20056;-75